Time;durP1;ratioP1;P1;durP2;ratioP2;P2;SDS_P1;SDS_P2;PMS_P1;PMS_P2;Temp;Humidity;BMP_temperature;BMP_pressure;BME280_temperature;BME280_humidity;BME280_pressure;Samples;Min_cycle;Max_cycle;Signal;HPM_P1;HPM_P2
2021/05/08 00:01:39;;;;;;;18.73;9.10;;;2.50;99.90;;;;;;4412876;28;655689;-73
2021/05/08 00:04:26;;;;;;;16.67;7.87;;;2.60;99.90;;;;;;4426927;28;655705;-75
2021/05/08 00:07:13;;;;;;;18.40;9.30;;;2.50;99.90;;;;;;4413473;28;655479;-75
2021/05/08 00:10:00;;;;;;;18.57;9.50;;;2.60;99.90;;;;;;4430456;28;655933;-75
2021/05/08 00:12:47;;;;;;;19.90;8.87;;;2.50;99.90;;;;;;4417428;28;655299;-73
2021/05/08 00:15:34;;;;;;;18.23;9.20;;;2.60;99.90;;;;;;4427145;28;655509;-74
2021/05/08 00:18:22;;;;;;;16.17;8.53;;;2.60;99.90;;;;;;4431838;28;655076;-75
2021/05/08 00:21:09;;;;;;;13.13;7.43;;;2.60;99.90;;;;;;4404259;28;656146;-74
2021/05/08 00:23:56;;;;;;;17.55;9.40;;;2.60;99.90;;;;;;4432033;28;655745;-74
2021/05/08 00:26:43;;;;;;;17.97;8.63;;;2.70;99.90;;;;;;4406523;28;655390;-74
2021/05/08 00:29:30;;;;;;;18.07;8.70;;;2.80;99.90;;;;;;4433736;28;656039;-75
2021/05/08 00:32:17;;;;;;;24.23;9.17;;;2.80;99.90;;;;;;4405161;28;655952;-71
2021/05/08 00:35:06;;;;;;;15.52;7.88;;;2.90;99.90;;;;;;4434121;28;656195;-73
2021/05/08 00:37:53;;;;;;;16.27;7.63;;;3.00;99.90;;;;;;4408243;28;655498;-74
2021/05/08 00:40:40;;;;;;;19.70;8.07;;;3.10;99.90;;;;;;4431737;28;657039;-75
2021/05/08 00:43:27;;;;;;;11.37;4.97;;;3.10;99.90;;;;;;4430722;28;655783;-71
2021/05/08 00:46:14;;;;;;;14.43;7.73;;;3.20;99.90;;;;;;4431281;28;655692;-71
2021/05/08 00:49:01;;;;;;;15.77;7.60;;;3.20;99.90;;;;;;4431809;28;656417;-73
2021/05/08 00:51:49;;;;;;;14.85;7.20;;;3.30;99.90;;;;;;4413357;28;655587;-75
2021/05/08 00:54:36;;;;;;;13.73;7.40;;;3.40;99.90;;;;;;4432155;28;655490;-75
2021/05/08 00:57:23;;;;;;;15.13;7.83;;;3.40;99.90;;;;;;4412193;28;655484;-75
2021/05/08 01:00:11;;;;;;;13.57;6.83;;;3.40;99.90;;;;;;4417703;28;655910;-74
2021/05/08 01:02:58;;;;;;;13.55;6.65;;;3.50;99.90;;;;;;4395585;28;655231;-73
2021/05/08 01:05:45;;;;;;;15.03;7.27;;;3.50;99.90;;;;;;4406218;28;656458;-75
2021/05/08 01:08:33;;;;;;;14.73;6.90;;;3.50;99.90;;;;;;4396776;28;656023;-72
2021/05/08 01:11:20;;;;;;;14.60;7.17;;;3.60;99.90;;;;;;4418502;28;656544;-75
2021/05/08 01:14:07;;;;;;;14.60;6.93;;;3.60;99.90;;;;;;4395364;28;655628;-71
2021/05/08 01:16:54;;;;;;;17.47;7.60;;;3.60;99.90;;;;;;4417121;28;656120;-75
2021/05/08 01:19:41;;;;;;;13.77;6.93;;;3.60;99.90;;;;;;4413885;28;655855;-75
2021/05/08 01:22:29;;;;;;;16.70;7.23;;;3.60;99.90;;;;;;4385827;28;656857;-74
2021/05/08 01:25:17;;;;;;;15.57;7.55;;;3.50;99.90;;;;;;4413682;28;655809;-73
2021/05/08 01:28:04;;;;;;;18.23;8.23;;;3.50;99.90;;;;;;4390433;28;655915;-75
2021/05/08 01:30:51;;;;;;;19.33;7.93;;;3.60;99.90;;;;;;4407173;28;655620;-74
2021/05/08 01:33:38;;;;;;;15.50;7.37;;;3.60;99.90;;;;;;4391616;28;655435;-74
2021/05/08 01:36:26;;;;;;;14.47;6.97;;;3.50;99.90;;;;;;4406251;28;655990;-74
2021/05/08 01:39:14;;;;;;;14.73;7.23;;;3.50;99.90;;;;;;4390837;28;655689;-74
2021/05/08 01:42:01;;;;;;;14.37;7.23;;;3.50;99.90;;;;;;4414015;28;655864;-74
2021/05/08 01:44:48;;;;;;;13.50;6.93;;;3.50;99.90;;;;;;4393694;28;655351;-74
2021/05/08 01:47:35;;;;;;;13.33;6.70;;;3.50;99.90;;;;;;4410539;28;656538;-75
2021/05/08 01:50:23;;;;;;;15.97;7.43;;;3.60;99.90;;;;;;4394525;28;655611;-73
2021/05/08 01:53:10;;;;;;;17.73;8.13;;;3.50;99.90;;;;;;4410548;28;655946;-75
2021/05/08 01:56:01;;;;;;;14.80;7.43;;;3.50;99.90;;;;;;4388047;28;655525;-70
2021/05/08 01:58:48;;;;;;;15.23;7.70;;;3.50;99.90;;;;;;4388297;28;655388;-74
2021/05/08 02:01:35;;;;;;;15.10;7.90;;;3.50;99.90;;;;;;4415461;28;655660;-74
2021/05/08 02:04:22;;;;;;;14.93;7.38;;;3.50;99.90;;;;;;4398270;28;656120;-71
2021/05/08 02:07:09;;;;;;;16.00;6.70;;;3.50;99.90;;;;;;4417544;28;656530;-75
2021/05/08 02:09:56;;;;;;;15.03;6.93;;;3.50;99.90;;;;;;4405977;28;655733;-73
2021/05/08 02:12:44;;;;;;;14.27;7.23;;;3.50;99.90;;;;;;4390819;28;655998;-74
2021/05/08 02:15:32;;;;;;;18.13;7.70;;;3.50;99.90;;;;;;4407060;28;656234;-74
2021/05/08 02:18:18;;;;;;;16.13;7.60;;;3.50;99.90;;;;;;4394662;28;655219;-75
2021/05/08 02:21:07;;;;;;;16.43;7.87;;;3.50;99.90;;;;;;4409683;28;655726;-73
2021/05/08 02:23:55;;;;;;;19.87;8.03;;;3.50;99.90;;;;;;4397745;28;655921;-72
2021/05/08 02:26:42;;;;;;;13.37;7.20;;;3.50;99.90;;;;;;4407956;28;655973;-71
2021/05/08 02:29:30;;;;;;;14.43;7.20;;;3.50;99.90;;;;;;4408474;28;655532;-74
2021/05/08 02:32:20;;;;;;;15.73;8.27;;;3.50;99.90;;;;;;4392108;28;655454;-73
2021/05/08 02:35:09;;;;;;;15.27;7.33;;;3.40;99.90;;;;;;4396706;28;655745;-73
2021/05/08 02:37:56;;;;;;;18.75;8.38;;;3.40;99.90;;;;;;4401307;28;655759;-75
2021/05/08 02:40:43;;;;;;;19.47;8.73;;;3.40;99.90;;;;;;4393534;28;655801;-75
2021/05/08 02:43:30;;;;;;;18.47;8.50;;;3.40;99.90;;;;;;4410733;28;655621;-75
2021/05/08 02:46:18;;;;;;;19.60;7.90;;;3.40;99.90;;;;;;4396585;28;655415;-72
2021/05/08 02:49:05;;;;;;;16.17;7.70;;;3.40;99.90;;;;;;4412875;28;656184;-74
2021/05/08 02:51:52;;;;;;;17.87;8.60;;;3.40;99.90;;;;;;4391468;28;655464;-71
2021/05/08 02:54:39;;;;;;;17.67;8.43;;;3.30;99.90;;;;;;4420048;28;656041;-74
2021/05/08 02:57:26;;;;;;;15.63;7.43;;;3.20;99.90;;;;;;4401213;28;655298;-75
2021/05/08 03:00:14;;;;;;;20.03;8.93;;;3.20;99.90;;;;;;4397957;28;655559;-75
2021/05/08 03:03:02;;;;;;;17.73;8.27;;;3.20;99.90;;;;;;4409948;28;655754;-74
2021/05/08 03:05:49;;;;;;;15.57;7.97;;;3.20;99.90;;;;;;4384265;28;655806;-73
2021/05/08 03:08:36;;;;;;;15.73;8.30;;;3.20;99.90;;;;;;4407379;28;656101;-74
2021/05/08 03:11:23;;;;;;;16.63;7.87;;;3.20;99.90;;;;;;4397193;28;655869;-74
2021/05/08 03:14:13;;;;;;;16.33;8.33;;;3.10;99.90;;;;;;4411767;28;656266;-74
2021/05/08 03:17:00;;;;;;;13.87;7.27;;;3.10;99.90;;;;;;4392606;28;655797;-75
2021/05/08 03:19:48;;;;;;;15.83;7.80;;;3.10;99.90;;;;;;4398866;28;656014;-70
2021/05/08 03:22:35;;;;;;;13.10;7.87;;;3.00;99.90;;;;;;4417304;28;656017;-74
2021/05/08 03:25:22;;;;;;;12.93;6.57;;;3.10;99.90;;;;;;4397956;28;655781;-71
2021/05/08 03:28:09;;;;;;;18.50;9.10;;;3.00;99.90;;;;;;4415269;28;656325;-74
2021/05/08 03:30:56;;;;;;;17.30;9.23;;;3.10;99.90;;;;;;4414504;28;655336;-74
2021/05/08 03:33:43;;;;;;;17.15;9.10;;;3.00;99.90;;;;;;4393286;28;655684;-74
2021/05/08 03:36:31;;;;;;;17.77;9.20;;;3.00;99.90;;;;;;4414316;28;656731;-73
2021/05/08 03:39:18;;;;;;;19.63;9.70;;;3.00;99.90;;;;;;4392411;28;655623;-74
2021/05/08 03:42:06;;;;;;;20.77;9.27;;;3.00;99.90;;;;;;4415387;28;657621;-74
2021/05/08 03:44:53;;;;;;;17.03;9.27;;;3.00;99.90;;;;;;4395459;28;656935;-74
2021/05/08 03:47:40;;;;;;;15.63;9.37;;;3.10;99.90;;;;;;4416240;28;657079;-75
2021/05/08 03:50:27;;;;;;;21.95;8.82;;;3.20;99.90;;;;;;4390270;28;656432;-70
2021/05/08 03:53:15;;;;;;;18.43;8.97;;;3.20;99.90;;;;;;4417347;28;656842;-75
2021/05/08 03:56:02;;;;;;;17.57;9.10;;;3.20;99.90;;;;;;4387222;28;656543;-72
2021/05/08 03:58:49;;;;;;;18.67;9.30;;;3.20;99.90;;;;;;4419642;28;657673;-74
2021/05/08 04:01:36;;;;;;;16.77;8.53;;;3.20;99.90;;;;;;4427608;28;656272;-75
2021/05/08 04:04:24;;;;;;;14.07;8.13;;;3.30;99.90;;;;;;4403787;28;656786;-74
2021/05/08 04:07:10;;;;;;;27.37;10.33;;;3.20;99.90;;;;;;4431395;28;656907;-75
2021/05/08 04:09:58;;;;;;;15.43;8.07;;;3.30;99.90;;;;;;4411145;28;657561;-72
2021/05/08 04:12:45;;;;;;;20.50;10.07;;;3.30;99.90;;;;;;4430440;28;657569;-75
2021/05/08 04:15:33;;;;;;;16.83;9.47;;;3.30;99.90;;;;;;4410637;28;657434;-72
2021/05/08 04:18:19;;;;;;;22.07;10.37;;;3.40;99.90;;;;;;4423612;28;658589;-74
2021/05/08 04:21:06;;;;;;;18.17;10.53;;;3.50;99.90;;;;;;4427932;28;657884;-74
2021/05/08 04:23:54;;;;;;;20.03;11.33;;;3.50;99.90;;;;;;4398890;28;658170;-74
2021/05/08 04:26:41;;;;;;;22.30;10.60;;;3.60;99.90;;;;;;4423870;28;657837;-74
2021/05/08 04:29:28;;;;;;;25.43;10.57;;;3.60;99.90;;;;;;4405618;28;657479;-76
2021/05/08 04:32:16;;;;;;;21.67;10.37;;;3.70;99.90;;;;;;4429564;28;658056;-73
2021/05/08 04:35:03;;;;;;;18.40;11.07;;;3.70;99.90;;;;;;4410031;28;657357;-74
2021/05/08 04:37:50;;;;;;;20.27;10.70;;;3.80;99.90;;;;;;4432067;28;658160;-73
2021/05/08 04:40:38;;;;;;;19.33;10.20;;;3.90;99.90;;;;;;4414298;28;657713;-72
2021/05/08 04:43:26;;;;;;;14.83;8.63;;;4.00;99.90;;;;;;4429024;28;659068;-74
2021/05/08 04:46:13;;;;;;;17.87;9.20;;;4.10;99.90;;;;;;4410485;28;656572;-74
2021/05/08 04:49:00;;;;;;;16.03;8.70;;;4.10;99.90;;;;;;4428488;28;656758;-75
2021/05/08 04:51:47;;;;;;;16.77;8.63;;;4.20;99.90;;;;;;4413461;28;656482;-72
2021/05/08 04:54:34;;;;;;;16.77;8.33;;;4.30;99.90;;;;;;4429584;28;656636;-74
2021/05/08 04:57:21;;;;;;;14.90;8.70;;;4.20;99.90;;;;;;4429757;28;656366;-73
2021/05/08 05:00:11;;;;;;;18.40;8.90;;;4.30;99.90;;;;;;4406606;28;656814;-73
2021/05/08 05:02:59;;;;;;;13.63;6.57;;;4.30;99.90;;;;;;4410759;28;656902;-74
2021/05/08 05:05:46;;;;;;;15.50;8.17;;;4.30;99.90;;;;;;4422938;28;656573;-73
2021/05/08 05:08:33;;;;;;;17.77;10.00;;;4.40;99.90;;;;;;4410214;28;656368;-72
2021/05/08 05:11:21;;;;;;;20.07;9.90;;;4.40;99.90;;;;;;4416418;28;659218;-75
2021/05/08 05:14:09;;;;;;;17.10;8.67;;;4.50;99.90;;;;;;4410689;28;656744;-75
2021/05/08 05:16:57;;;;;;;15.27;8.70;;;4.50;99.90;;;;;;4430770;28;656975;-74
2021/05/08 05:19:44;;;;;;;17.97;9.10;;;4.70;99.90;;;;;;4410532;28;657325;-73
2021/05/08 05:22:31;;;;;;;16.80;8.20;;;4.80;99.90;;;;;;4429706;28;656687;-74
2021/05/08 05:25:18;;;;;;;15.27;8.07;;;4.90;99.90;;;;;;4411353;28;656571;-74
2021/05/08 05:28:18;;;;;;;16.17;8.57;;;4.90;99.90;;;;;;4423960;28;658324;-74
2021/05/08 05:31:05;;;;;;;13.93;7.80;;;5.00;99.90;;;;;;4406622;28;657105;-74
2021/05/08 05:33:53;;;;;;;17.33;8.37;;;5.00;99.90;;;;;;4404664;28;656947;-72
2021/05/08 05:36:40;;;;;;;12.40;6.03;;;5.10;99.90;;;;;;4433960;28;657951;-75
2021/05/08 05:39:27;;;;;;;15.47;7.30;;;5.20;99.90;;;;;;4410730;28;656343;-71
2021/05/08 05:42:14;;;;;;;12.07;6.03;;;5.10;99.90;;;;;;4427405;28;656914;-74
2021/05/08 05:45:01;;;;;;;12.55;6.45;;;5.20;99.90;;;;;;4424860;28;656911;-75
2021/05/08 05:47:54;;;;;;;11.15;6.57;;;5.30;99.90;;;;;;4411123;28;656765;-74
2021/05/08 05:50:43;;;;;;;16.67;6.80;;;5.50;99.90;;;;;;4407952;28;657044;-75
2021/05/08 05:53:30;;;;;;;12.67;6.00;;;5.60;99.90;;;;;;4408399;28;656843;-74
2021/05/08 05:56:17;;;;;;;11.43;6.57;;;5.80;99.90;;;;;;4405345;28;657178;-71
2021/05/08 05:59:04;;;;;;;11.37;6.43;;;6.00;99.90;;;;;;4429180;28;657150;-76
2021/05/08 06:01:51;;;;;;;11.77;6.20;;;6.10;99.90;;;;;;4432751;28;656875;-74
2021/05/08 06:04:38;;;;;;;11.10;5.95;;;6.20;99.90;;;;;;4410349;28;656275;-73
2021/05/08 06:07:26;;;;;;;11.37;5.33;;;6.30;99.90;;;;;;4425319;28;657477;-76
2021/05/08 06:10:14;;;;;;;8.67;4.60;;;6.50;99.90;;;;;;4414731;28;656771;-74
2021/05/08 06:13:01;;;;;;;12.37;5.63;;;6.70;99.90;;;;;;4432193;28;655717;-75
2021/05/08 06:15:48;;;;;;;8.40;5.20;;;6.70;99.90;;;;;;4406562;28;656856;-74
2021/05/08 06:18:35;;;;;;;11.67;4.97;;;6.70;99.90;;;;;;4437869;28;657108;-75
2021/05/08 06:21:23;;;;;;;11.73;5.00;;;6.80;99.90;;;;;;4408165;28;656814;-74
2021/05/08 06:24:11;;;;;;;8.83;4.50;;;6.70;99.90;;;;;;4432674;28;657226;-74
2021/05/08 06:26:58;;;;;;;8.93;4.60;;;6.40;99.90;;;;;;4410046;28;656305;-74
2021/05/08 06:29:45;;;;;;;8.83;4.60;;;6.30;99.90;;;;;;4429353;28;655636;-72
2021/05/08 06:32:32;;;;;;;7.83;4.60;;;6.40;99.90;;;;;;4420670;28;655723;-69
2021/05/08 06:35:19;;;;;;;12.63;5.40;;;6.40;99.90;;;;;;4427042;28;655586;-72
2021/05/08 06:38:06;;;;;;;10.48;5.15;;;6.50;99.90;;;;;;4426412;28;657282;-72
2021/05/08 06:40:54;;;;;;;7.77;4.43;;;6.60;99.90;;;;;;4405782;28;656620;-72
2021/05/08 06:43:41;;;;;;;8.90;4.30;;;6.90;99.90;;;;;;4432076;28;655084;-72
2021/05/08 06:46:28;;;;;;;10.03;5.00;;;7.00;99.90;;;;;;4404288;28;655552;-73
2021/05/08 06:49:15;;;;;;;10.57;5.70;;;7.10;99.90;;;;;;4424324;28;658050;-72
2021/05/08 06:52:02;;;;;;;10.73;5.17;;;7.30;99.90;;;;;;4411491;28;657075;-71
2021/05/08 06:54:50;;;;;;;10.53;4.00;;;7.50;99.90;;;;;;4423829;28;657161;-72
2021/05/08 06:57:37;;;;;;;5.90;3.93;;;7.70;99.90;;;;;;4431217;28;656462;-72
2021/05/08 07:00:25;;;;;;;7.97;3.90;;;7.60;99.90;;;;;;4392941;28;656459;-72
2021/05/08 07:03:12;;;;;;;6.47;3.97;;;7.60;99.90;;;;;;4412295;28;655609;-70
2021/05/08 07:05:59;;;;;;;6.37;3.47;;;7.80;99.90;;;;;;4419244;28;655334;-71
2021/05/08 07:08:46;;;;;;;5.27;2.87;;;7.80;99.90;;;;;;4400977;28;656224;-70
2021/05/08 07:11:33;;;;;;;6.07;2.93;;;7.90;99.90;;;;;;4396760;28;655719;-70
2021/05/08 07:14:21;;;;;;;5.63;2.83;;;7.90;99.90;;;;;;4415450;28;656836;-72
2021/05/08 07:17:08;;;;;;;11.83;3.50;;;7.80;99.90;;;;;;4389516;28;655539;-72
2021/05/08 07:19:55;;;;;;;5.45;3.38;;;7.90;99.90;;;;;;4406609;28;657551;-72
2021/05/08 07:22:43;;;;;;;9.30;2.97;;;8.00;99.90;;;;;;4382739;28;655421;-70
2021/05/08 07:25:30;;;;;;;8.30;3.37;;;8.20;99.90;;;;;;4415921;28;656631;-72
2021/05/08 07:28:19;;;;;;;7.73;3.60;;;8.50;99.90;;;;;;4414393;28;655368;-70
2021/05/08 07:31:07;;;;;;;5.95;3.17;;;8.50;99.90;;;;;;4409432;28;654981;-72
2021/05/08 07:33:54;;;;;;;8.43;3.43;;;8.40;99.90;;;;;;4388065;28;656330;-70
2021/05/08 07:36:41;;;;;;;7.33;3.07;;;8.40;99.90;;;;;;4416156;28;655500;-70
2021/05/08 07:39:28;;;;;;;7.30;2.83;;;8.80;99.90;;;;;;4389995;28;656177;-73
2021/05/08 07:42:15;;;;;;;3.80;2.33;;;8.90;99.90;;;;;;4419679;28;655985;-72
2021/05/08 07:45:02;;;;;;;4.53;2.23;;;9.00;99.90;;;;;;4400102;28;655648;-67
2021/05/08 07:47:50;;;;;;;4.80;2.50;;;8.40;99.90;;;;;;4419946;28;655982;-68
2021/05/08 07:50:37;;;;;;;4.80;2.30;;;8.10;99.90;;;;;;4397182;28;655649;-68
2021/05/08 07:53:24;;;;;;;6.40;3.13;;;7.90;99.90;;;;;;4411814;28;657093;-68
2021/05/08 07:56:11;;;;;;;6.03;3.17;;;8.20;99.90;;;;;;4404951;28;655203;-68
2021/05/08 07:58:58;;;;;;;7.47;2.97;;;8.70;99.90;;;;;;4401364;28;655665;-68
2021/05/08 08:01:45;;;;;;;3.80;2.40;;;8.80;99.90;;;;;;4427368;28;656476;-72
2021/05/08 08:04:33;;;;;;;4.30;2.30;;;8.80;99.90;;;;;;4413372;28;655754;-68
2021/05/08 08:07:20;;;;;;;6.03;2.73;;;8.30;99.90;;;;;;4434949;28;656799;-69
2021/05/08 08:10:08;;;;;;;6.60;2.87;;;8.10;99.90;;;;;;4406013;28;655721;-68
2021/05/08 08:12:55;;;;;;;4.63;2.30;;;8.20;99.90;;;;;;4425074;28;656732;-69
2021/05/08 08:15:42;;;;;;;8.20;2.50;;;8.40;99.90;;;;;;4410033;28;655877;-68
2021/05/08 08:18:29;;;;;;;6.50;2.67;;;8.70;99.90;;;;;;4420289;28;655621;-69
2021/05/08 08:21:17;;;;;;;3.77;2.30;;;8.80;99.90;;;;;;4431970;28;656090;-69
2021/05/08 08:24:09;;;;;;;5.10;2.60;;;8.90;99.90;;;;;;4407887;28;656621;-68
2021/05/08 08:26:56;;;;;;;6.70;2.43;;;8.80;99.90;;;;;;4413267;28;656000;-69
2021/05/08 08:29:43;;;;;;;7.70;3.00;;;8.70;99.90;;;;;;4407438;28;655729;-68
2021/05/08 08:32:30;;;;;;;6.13;2.57;;;8.60;99.90;;;;;;4435726;28;655956;-70
2021/05/08 08:35:17;;;;;;;4.47;2.43;;;8.50;99.90;;;;;;4427804;28;655590;-68
2021/05/08 08:38:06;;;;;;;3.00;2.07;;;8.40;99.90;;;;;;4436357;28;656042;-69
2021/05/08 08:40:53;;;;;;;3.63;2.13;;;8.90;99.90;;;;;;4412567;28;655402;-68
2021/05/08 08:43:40;;;;;;;3.43;2.03;;;9.30;99.90;;;;;;4431343;28;656947;-69
2021/05/08 08:46:27;;;;;;;3.00;1.97;;;9.40;99.90;;;;;;4423592;28;655917;-70
2021/05/08 08:49:15;;;;;;;3.53;2.23;;;9.10;99.90;;;;;;4428982;28;655498;-74
2021/05/08 08:52:02;;;;;;;9.53;2.60;;;8.90;99.90;;;;;;4428203;28;655921;-69
2021/05/08 08:54:50;;;;;;;4.80;3.40;;;9.00;99.90;;;;;;4435659;28;656159;-71
2021/05/08 08:57:38;;;;;;;7.10;3.70;;;9.10;99.90;;;;;;4412935;28;655698;-68
2021/05/08 09:00:25;;;;;;;8.13;4.13;;;9.20;99.90;;;;;;4425218;28;655544;-71
2021/05/08 09:03:12;;;;;;;5.30;3.10;;;9.00;99.90;;;;;;4407737;28;655425;-73
2021/05/08 09:06:00;;;;;;;8.77;4.00;;;9.00;99.90;;;;;;4423440;28;657213;-70
2021/05/08 09:08:47;;;;;;;9.37;4.37;;;9.00;99.90;;;;;;4421250;28;656013;-69
2021/05/08 09:11:45;;;;;;;13.75;5.15;;;9.50;99.90;;;;;;4435227;28;655773;-68
2021/05/08 09:14:33;;;;;;;5.43;3.03;;;9.70;99.90;;;;;;4394707;28;656451;-68
2021/05/08 09:17:22;;;;;;;4.60;2.73;;;10.20;99.90;;;;;;4423901;28;655689;-69
2021/05/08 09:20:09;;;;;;;8.40;2.93;;;10.50;99.90;;;;;;4412084;28;657005;-69
2021/05/08 09:22:56;;;;;;;4.53;2.30;;;10.70;99.90;;;;;;4423381;28;657294;-69
2021/05/08 09:25:58;;;;;;;5.73;2.70;;;11.10;99.90;;;;;;4412177;28;656998;-74
2021/05/08 09:28:53;;;;;;;6.10;2.57;;;11.20;99.90;;;;;;4409987;28;657329;-73
2021/05/08 09:31:52;;;;;;;4.80;2.30;;;10.80;99.90;;;;;;4411609;28;657121;-74
2021/05/08 09:34:38;;;;;;;3.87;2.40;;;10.80;99.90;;;;;;4412954;28;656168;-68
2021/05/08 09:37:25;;;;;;;4.80;2.50;;;10.20;99.90;;;;;;4426801;28;657035;-72
2021/05/08 09:40:14;;;;;;;4.67;2.07;;;10.20;99.90;;;;;;4413913;28;656708;-72
2021/05/08 09:43:01;;;;;;;4.33;2.43;;;10.00;99.90;;;;;;4408410;28;657029;-73
2021/05/08 09:45:52;;;;;;;5.63;2.97;;;9.70;99.90;;;;;;4414594;28;657063;-68
2021/05/08 09:48:39;;;;;;;6.53;3.40;;;9.90;99.90;;;;;;4401452;28;655632;-70
2021/05/08 09:51:27;;;;;;;5.67;2.93;;;10.60;99.90;;;;;;4434509;28;655653;-71
2021/05/08 09:54:14;;;;;;;4.43;2.47;;;11.10;99.90;;;;;;4414373;28;656537;-71
2021/05/08 09:57:01;;;;;;;4.13;2.40;;;11.20;99.90;;;;;;4437389;28;656198;-70
2021/05/08 09:59:48;;;;;;;4.77;2.70;;;10.90;99.90;;;;;;4410788;28;656606;-73
2021/05/08 10:02:37;;;;;;;4.93;2.50;;;10.70;99.90;;;;;;4427940;28;657630;-72
2021/05/08 10:05:24;;;;;;;4.33;2.63;;;10.40;99.90;;;;;;4402885;28;656661;-74
2021/05/08 10:08:11;;;;;;;5.83;2.70;;;10.10;99.90;;;;;;4417453;28;657082;-70
2021/05/08 10:10:58;;;;;;;8.17;3.03;;;9.90;99.90;;;;;;4413549;28;656507;-69
2021/05/08 10:13:45;;;;;;;3.10;2.40;;;9.50;99.90;;;;;;4434163;28;656733;-74
2021/05/08 10:16:32;;;;;;;6.00;3.33;;;9.50;99.90;;;;;;4430130;28;655122;-71
2021/05/08 10:19:20;;;;;;;5.57;2.67;;;9.30;99.90;;;;;;4412284;28;655594;-74
2021/05/08 10:22:09;;;;;;;3.42;2.60;;;9.30;99.90;;;;;;4405398;28;655863;-69
2021/05/08 10:24:56;;;;;;;5.47;3.07;;;9.30;99.90;;;;;;4424832;28;655970;-73
2021/05/08 10:27:43;;;;;;;4.33;2.80;;;9.50;99.90;;;;;;4405487;28;655352;-69
2021/05/08 10:30:31;;;;;;;5.97;3.57;;;10.10;99.90;;;;;;4420852;28;656329;-70
2021/05/08 10:33:21;;;;;;;10.70;3.20;;;10.40;99.90;;;;;;4397468;28;656325;-68
2021/05/08 10:36:09;;;;;;;4.13;2.70;;;10.50;99.90;;;;;;4400832;28;657646;-70
2021/05/08 10:39:06;;;;;;;4.50;3.10;;;10.20;99.90;;;;;;4414908;28;656812;-69
2021/05/08 10:41:53;;;;;;;3.50;2.50;;;10.00;99.90;;;;;;4375352;28;657492;-67
2021/05/08 10:44:43;;;;;;;6.10;2.17;;;10.30;99.90;;;;;;4423513;28;657655;-67
2021/05/08 10:48:06;;;;;;;7.27;2.90;;;10.80;99.90;;;;;;4408012;28;657913;-68
2021/05/08 10:50:58;;;;;;;7.03;2.90;;;11.40;99.90;;;;;;4364703;28;656582;-68
2021/05/08 10:53:46;;;;;;;4.60;2.97;;;11.80;99.90;;;;;;4390266;28;657946;-68
2021/05/08 10:56:33;;;;;;;6.93;3.57;;;12.40;99.90;;;;;;4413699;28;657013;-69
2021/05/08 10:59:20;;;;;;;5.40;3.37;;;12.90;99.90;;;;;;4431999;28;657500;-68
2021/05/08 11:02:07;;;;;;;6.47;3.70;;;13.60;99.90;;;;;;4412676;28;657085;-68
2021/05/08 11:05:21;;;;;;;5.83;3.20;;;14.10;99.30;;;;;;4429203;28;657410;-68
2021/05/08 11:08:42;;;;;;;7.57;3.57;;;14.20;95.60;;;;;;4370664;28;657340;-68
2021/05/08 11:11:46;;;;;;;5.37;3.23;;;13.50;93.60;;;;;;4400508;28;656226;-68
2021/05/08 11:14:52;;;;;;;7.50;2.80;;;12.90;90.80;;;;;;4390694;28;656764;-69
2021/05/08 11:18:01;;;;;;;5.07;2.70;;;12.50;91.90;;;;;;4408025;28;656641;-68
2021/05/08 11:20:48;;;;;;;6.35;3.15;;;12.10;89.90;;;;;;4378574;28;656237;-68
2021/05/08 11:23:41;;;;;;;3.63;2.40;;;11.80;91.20;;;;;;4406340;28;656710;-68
2021/05/08 11:26:35;;;;;;;4.60;2.37;;;11.80;91.60;;;;;;4408011;28;656302;-73
2021/05/08 11:29:28;;;;;;;4.90;2.50;;;11.60;92.50;;;;;;4401414;28;656654;-71
2021/05/08 11:32:15;;;;;;;5.23;2.90;;;11.50;91.80;;;;;;4401940;28;658598;-70
2021/05/08 11:35:02;;;;;;;7.53;2.70;;;11.10;92.70;;;;;;4412772;28;656546;-71
2021/05/08 11:37:49;;;;;;;7.00;2.50;;;11.20;92.70;;;;;;4417300;28;656425;-73
2021/05/08 11:40:36;;;;;;;5.13;2.03;;;11.90;95.70;;;;;;4431298;28;656866;-68
2021/05/08 11:43:24;;;;;;;4.77;2.73;;;11.90;91.50;;;;;;4407087;28;657046;-68
2021/05/08 11:46:12;;;;;;;4.03;2.53;;;12.30;90.10;;;;;;4431799;28;656699;-67
2021/05/08 11:48:59;;;;;;;9.17;3.00;;;12.40;88.80;;;;;;4401909;28;656521;-67
2021/05/08 11:51:46;;;;;;;4.70;2.60;;;13.00;89.70;;;;;;4423893;28;656787;-68
2021/05/08 11:54:39;;;;;;;2.53;2.07;;;12.80;87.00;;;;;;4411560;28;656732;-70
2021/05/08 11:57:26;;;;;;;5.17;2.90;;;12.60;84.90;;;;;;4402012;28;656684;-73
2021/05/08 12:00:15;;;;;;;5.23;2.20;;;12.30;81.20;;;;;;4411384;28;656744;-75
2021/05/08 12:03:10;;;;;;;6.00;2.60;;;11.90;82.70;;;;;;4406778;28;657029;-70
2021/05/08 12:05:57;;;;;;;3.63;2.07;;;11.80;81.70;;;;;;4392445;28;656898;-71
2021/05/08 12:08:44;;;;;;;5.60;2.17;;;11.70;82.00;;;;;;4434885;28;656629;-71
2021/05/08 12:11:31;;;;;;;4.07;2.17;;;11.60;77.40;;;;;;4430414;28;656123;-70
2021/05/08 12:14:18;;;;;;;5.20;2.20;;;11.40;77.00;;;;;;4392650;28;656401;-73
2021/05/08 12:17:05;;;;;;;4.70;2.47;;;11.30;74.70;;;;;;4433518;28;657095;-73
2021/05/08 12:19:54;;;;;;;5.27;2.37;;;11.80;74.30;;;;;;4411714;28;656886;-73
2021/05/08 12:22:41;;;;;;;3.67;2.33;;;12.90;77.00;;;;;;4430835;28;656586;-71
2021/05/08 12:25:28;;;;;;;3.90;2.33;;;12.90;66.20;;;;;;4411783;28;656439;-72
2021/05/08 12:28:15;;;;;;;2.57;1.93;;;13.40;70.30;;;;;;4425050;28;657761;-72
2021/05/08 12:31:24;;;;;;;5.47;1.90;;;13.70;69.50;;;;;;4404126;28;656940;-72
2021/05/08 12:34:12;;;;;;;3.77;2.03;;;14.00;64.10;;;;;;4405092;28;657083;-72
2021/05/08 12:37:01;;;;;;;4.33;1.70;;;14.00;58.30;;;;;;4411760;28;656580;-72
2021/05/08 12:39:49;;;;;;;3.00;1.77;;;14.10;59.10;;;;;;4408074;28;656135;-72
2021/05/08 12:42:43;;;;;;;4.03;2.10;;;14.10;57.90;;;;;;4432584;28;656397;-72
2021/05/08 12:45:30;;;;;;;5.00;2.10;;;14.40;56.40;;;;;;4391513;28;657392;-73
2021/05/08 12:48:26;;;;;;;5.00;2.30;;;13.90;59.30;;;;;;4379658;28;656746;-69
2021/05/08 12:51:26;;;;;;;3.57;1.80;;;14.00;59.60;;;;;;4395372;28;656460;-72
2021/05/08 12:54:21;;;;;;;4.07;2.07;;;13.90;56.70;;;;;;4402683;28;656761;-69
2021/05/08 12:57:12;;;;;;;5.07;1.90;;;13.90;57.40;;;;;;4354744;28;657546;-71
2021/05/08 13:00:00;;;;;;;5.40;2.13;;;14.40;58.20;;;;;;4386681;28;657244;-72
2021/05/08 13:02:48;;;;;;;3.53;1.90;;;14.80;55.30;;;;;;4389568;28;656433;-70
2021/05/08 13:05:35;;;;;;;3.53;1.80;;;14.50;53.10;;;;;;4392936;28;656533;-69
2021/05/08 13:08:43;;;;;;;3.27;1.90;;;13.70;51.80;;;;;;4365984;28;656500;-69
2021/05/08 13:11:35;;;;;;;4.90;2.23;;;13.40;54.00;;;;;;4366346;28;657163;-69
2021/05/08 13:14:23;;;;;;;5.37;2.10;;;13.30;54.20;;;;;;4376070;28;656873;-70
2021/05/08 13:17:10;;;;;;;4.57;2.03;;;13.30;54.40;;;;;;4395673;28;657919;-72
2021/05/08 13:19:57;;;;;;;3.83;2.00;;;13.30;54.00;;;;;;4376489;28;656760;-70
2021/05/08 13:22:44;;;;;;;4.07;1.90;;;13.90;55.20;;;;;;4399317;28;656149;-72
2021/05/08 13:25:31;;;;;;;4.07;2.10;;;14.20;53.90;;;;;;4398922;28;656632;-72
2021/05/08 13:28:19;;;;;;;2.47;1.50;;;14.40;51.80;;;;;;4358798;28;656299;-71
2021/05/08 13:31:06;;;;;;;3.57;1.90;;;14.30;50.60;;;;;;4379322;28;656861;-72
2021/05/08 13:33:53;;;;;;;4.90;2.20;;;14.60;51.90;;;;;;4386685;28;656486;-72
2021/05/08 13:36:40;;;;;;;3.63;1.90;;;15.00;51.40;;;;;;4415950;28;657260;-71
2021/05/08 13:39:27;;;;;;;3.60;2.10;;;14.70;50.10;;;;;;4405872;28;657011;-70
2021/05/08 13:42:14;;;;;;;3.10;2.20;;;14.90;50.90;;;;;;4430409;28;656266;-72
2021/05/08 13:45:02;;;;;;;3.40;2.00;;;15.00;49.80;;;;;;4423233;28;656788;-73
2021/05/08 13:47:49;;;;;;;3.77;2.03;;;13.80;48.00;;;;;;4410489;28;657149;-73
2021/05/08 13:50:36;;;;;;;3.73;1.87;;;13.40;50.20;;;;;;4427183;28;656716;-72
2021/05/08 13:53:23;;;;;;;3.87;2.13;;;13.50;50.90;;;;;;4410403;28;657163;-72
2021/05/08 13:56:10;;;;;;;2.80;1.80;;;13.90;49.80;;;;;;4423502;28;656841;-73
2021/05/08 13:58:57;;;;;;;4.07;2.17;;;13.90;50.90;;;;;;4409798;28;656559;-70
2021/05/08 14:01:45;;;;;;;3.13;1.73;;;14.10;51.70;;;;;;4425764;28;656721;-71
2021/05/08 14:04:32;;;;;;;4.80;2.03;;;14.80;49.50;;;;;;4406591;28;656968;-70
2021/05/08 14:07:19;;;;;;;3.30;2.13;;;14.90;48.30;;;;;;4426721;28;655886;-72
2021/05/08 14:10:08;;;;;;;3.00;1.90;;;14.30;48.70;;;;;;4429334;28;657852;-72
2021/05/08 14:12:55;;;;;;;3.67;2.13;;;14.30;50.00;;;;;;4404066;28;657930;-71
2021/05/08 14:15:42;;;;;;;5.20;2.00;;;14.20;50.90;;;;;;4431584;28;656401;-70
2021/05/08 14:18:30;;;;;;;4.63;2.90;;;14.40;49.70;;;;;;4437300;28;656217;-72
2021/05/08 14:21:17;;;;;;;3.07;2.03;;;14.50;51.00;;;;;;4414329;28;656566;-71
2021/05/08 14:24:05;;;;;;;4.33;1.97;;;14.60;51.10;;;;;;4432483;28;656157;-73
2021/05/08 14:26:52;;;;;;;2.93;2.03;;;14.40;49.90;;;;;;4413010;28;656934;-70